Terminal Aerodrome Forecast
Issued by NWS

Home | Current Version | Previous Version | Text Only | Print | Product List | Glossary On
Versions: 1 2 3 4 5 6 7 8 9 10 11 12 13 14 15 16 17 18
000
FTUS45 KTFX 291907 AAA
TAFBZN
TAF AMD
KBZN 291907Z 2919/3018 VRB05KT P6SM SCT040
     FM292300 VRB05KT P6SM VCSH BKN050
     FM300200 12006KT P6SM BKN250
     FM301500 VRB05KT P6SM BKN100=

USA.gov is the U.S. government's official web portal to all federal, state and local government web resources and services.